createdAt,value
2023-02-14T00:01:10.208Z,102593.19
2023-02-14T00:02:12.036Z,102601.88
2023-02-14T00:03:14.802Z,102606.03
2023-02-14T00:04:18.569Z,102596.84
2023-02-14T00:05:20.426Z,102611.53
2023-02-14T00:06:22.223Z,102594.16
2023-02-14T00:07:24.053Z,102608.09
2023-02-14T00:08:25.812Z,102616.97
2023-02-14T00:09:27.560Z,102606.69
2023-02-14T00:10:29.374Z,102615.41
2023-02-14T00:11:31.559Z,102623.44
2023-02-14T00:12:33.315Z,102626.13
2023-02-14T00:13:35.241Z,102616.38
2023-02-14T00:14:55.787Z,102613.69
2023-02-14T00:15:57.770Z,102616.88
2023-02-14T00:17:00.287Z,102613.69
2023-02-14T00:18:03.535Z,102611.84
2023-02-14T00:19:05.569Z,102618.19
2023-02-14T00:20:07.964Z,102617.34
2023-02-14T00:21:09.738Z,102614.97
2023-02-14T00:22:11.576Z,102622.91
2023-02-14T00:23:13.389Z,102628.16
2023-02-14T00:24:18.702Z,102623.91
2023-02-14T00:25:20.507Z,102631.72
2023-02-14T00:26:22.291Z,102630.97
2023-02-14T00:27:24.117Z,102621.22
2023-02-14T00:28:25.923Z,102628.28
2023-02-14T00:29:31.119Z,102626.66
2023-02-14T00:30:34.501Z,102626.56
2023-02-14T00:31:40.844Z,102626.56
2023-02-14T00:32:43.234Z,102629.25
2023-02-14T00:33:45.128Z,102627.41
2023-02-14T00:34:46.908Z,102634.72
2023-02-14T00:35:48.876Z,102633.00
2023-02-14T00:36:51.161Z,102620.31
2023-02-14T00:37:53.156Z,102611.22
2023-02-14T00:38:55.080Z,102613.66
2023-02-14T00:39:56.876Z,102618.81
2023-02-14T00:40:59.238Z,102614.72
2023-02-14T00:42:01.152Z,102609.59
2023-02-14T00:43:02.907Z,102617.97
2023-02-14T00:44:05.616Z,102621.59
2023-02-14T00:45:07.686Z,102623.34
2023-02-14T00:46:10.417Z,102623.34
2023-02-14T00:47:12.295Z,102628.69
2023-02-14T00:48:14.033Z,102634.06
2023-02-14T00:49:15.857Z,102621.19
2023-02-14T00:50:17.755Z,102635.97
2023-02-14T00:51:20.970Z,102638.66
2023-02-14T00:52:22.730Z,102638.66
2023-02-14T00:53:24.547Z,102644.88
2023-02-14T00:54:26.472Z,102644.97
2023-02-14T00:55:28.280Z,102647.66
2023-02-14T00:56:30.237Z,102639.81
2023-02-14T00:57:31.980Z,102640.56
2023-02-14T00:58:34.093Z,102631.91
2023-02-14T00:59:35.808Z,102637.91
2023-02-14T01:00:39.092Z,102637.91
2023-02-14T01:01:40.934Z,102635.22
2023-02-14T01:02:44.151Z,102626.56
2023-02-14T01:03:46.397Z,102630.06
2023-02-14T01:04:48.159Z,102627.38
2023-02-14T01:05:50.717Z,102632.75
2023-02-14T01:06:52.468Z,102638.13
2023-02-14T01:07:54.939Z,102641.97
2023-02-14T01:08:57.401Z,102634.59
2023-02-14T01:09:59.169Z,102637.28
2023-02-14T01:11:18.745Z,102636.19
2023-02-14T01:12:21.008Z,102641.31
2023-02-14T01:13:23.519Z,102636.41
2023-02-14T01:14:25.391Z,102632.22
2023-02-14T01:15:27.201Z,102656.88
2023-02-14T01:16:30.286Z,102646.38
2023-02-14T01:17:32.160Z,102642.63
2023-02-14T01:18:34.641Z,102634.69
2023-02-14T01:19:36.756Z,102628.47
2023-02-14T01:20:38.824Z,102631.16
2023-02-14T01:21:41.726Z,102639.22
2023-02-14T01:22:43.538Z,102627.09
2023-02-14T01:23:47.332Z,102629.44
2023-02-14T01:24:49.188Z,102637.38
2023-02-14T01:25:50.953Z,102638.34
2023-02-14T01:26:52.757Z,102641.97
2023-02-14T01:27:54.669Z,102632.13
2023-02-14T01:28:56.921Z,102650.03
2023-02-14T01:29:58.797Z,102639.97
2023-02-14T01:31:11.528Z,102638.34
2023-02-14T01:32:13.477Z,102649.06
2023-02-14T01:33:15.356Z,102651.00
2023-02-14T01:34:17.200Z,102645.63
2023-02-14T01:35:21.787Z,102639.66
2023-02-14T01:36:32.264Z,102657.31
2023-02-14T01:37:34.095Z,102644.34
2023-02-14T01:38:35.866Z,102662.59
2023-02-14T01:39:37.635Z,102667.22
2023-02-14T01:40:45.493Z,102661.84
2023-02-14T01:41:48.699Z,102660.97
2023-02-14T01:42:51.338Z,102671.69
2023-02-14T01:44:06.289Z,102665.28
2023-02-14T01:45:18.037Z,102658.06
2023-02-14T01:46:21.754Z,102668.72
2023-02-14T01:47:26.609Z,102669.75
2023-02-14T01:48:28.523Z,102669.00
2023-02-14T01:49:35.737Z,102662.38
2023-02-14T01:50:43.834Z,102669.53
2023-02-14T01:52:10.206Z,102675.25
2023-02-14T01:53:28.944Z,102670.72
2023-02-14T01:54:35.571Z,102676.84
2023-02-14T01:55:41.824Z,102691.97
2023-02-14T01:56:51.717Z,102682.31
2023-02-14T01:57:55.753Z,102678.91
2023-02-14T01:59:01.410Z,102675.25
2023-02-14T02:00:28.362Z,102680.72
2023-02-14T02:01:31.460Z,102661.41
2023-02-14T02:02:35.715Z,102679.53
2023-02-14T02:03:43.360Z,102683.38
2023-02-14T02:04:47.117Z,102677.50
2023-02-14T02:05:52.090Z,102687.91
2023-02-14T02:07:01.872Z,102677.28
2023-02-14T02:08:04.127Z,102678.03
2023-02-14T02:09:16.586Z,102673.75
2023-02-14T02:10:18.824Z,102682.53
2023-02-14T02:11:20.722Z,102679.97
2023-02-14T02:12:22.564Z,102676.53
2023-02-14T02:13:24.364Z,102672.13
2023-02-14T02:14:26.664Z,102675.78
2023-02-14T02:15:31.210Z,102677.72
2023-02-14T02:17:08.273Z,102675.03
2023-02-14T02:18:22.162Z,102677.81
2023-02-14T02:19:50.367Z,102677.06
2023-02-14T02:21:27.292Z,102680.81
2023-02-14T02:23:13.264Z,102674.28
2023-02-14T02:24:16.320Z,102678.13
2023-02-14T02:25:42.993Z,102677.59
2023-02-14T02:27:11.685Z,102651.66
2023-02-14T02:28:46.108Z,102670.28
2023-02-14T02:30:22.164Z,102664.94
2023-02-14T02:31:42.539Z,102671.38
2023-02-14T02:33:12.964Z,102666.88
2023-02-14T02:34:39.201Z,102672.44
2023-02-14T02:35:59.004Z,102673.41
2023-02-14T02:37:06.960Z,102661.09
2023-02-14T02:38:26.306Z,102671.91
2023-02-14T02:39:45.505Z,102667.50
2023-02-14T02:40:58.515Z,102672.88
2023-02-14T02:42:06.156Z,102663.13
2023-02-14T02:43:33.429Z,102677.41
2023-02-14T02:44:57.672Z,102665.81
2023-02-14T02:46:24.223Z,102667.50
2023-02-14T02:47:42.644Z,102664.97
2023-02-14T02:49:02.403Z,102670.94
2023-02-14T02:50:36.308Z,102677.41
2023-02-14T02:52:06.611Z,102679.13
2023-02-14T02:53:22.160Z,102686.06
2023-02-14T02:54:37.443Z,102672.34
2023-02-14T02:56:16.932Z,102680.91
2023-02-14T02:57:25.780Z,102677.19
2023-02-14T02:58:34.454Z,102679.34
2023-02-14T02:59:41.831Z,102682.31
2023-02-14T03:00:44.561Z,102691.31
2023-02-14T03:01:58.776Z,102685.00
2023-02-14T03:03:19.080Z,102688.66
2023-02-14T03:04:40.410Z,102684.88
2023-02-14T03:05:43.117Z,102691.94
2023-02-14T03:06:46.238Z,102686.94
2023-02-14T03:07:48.836Z,102685.31
2023-02-14T03:08:50.677Z,102674.16
2023-02-14T03:09:57.647Z,102686.47
2023-02-14T03:11:03.118Z,102674.59
2023-02-14T03:12:04.996Z,102688.09
2023-02-14T03:13:39.937Z,102691.41
2023-02-14T03:14:59.186Z,102666.53
2023-02-14T03:16:06.701Z,102684.88
2023-02-14T03:17:12.541Z,102684.25
2023-02-14T03:19:13.316Z,102677.16
2023-02-14T03:20:31.741Z,102685.09
2023-02-14T03:21:39.562Z,102688.22
2023-02-14T03:23:03.206Z,102693.66
2023-02-14T03:24:17.036Z,102694.53
2023-02-14T03:25:42.991Z,102692.75
2023-02-14T03:26:56.214Z,102691.13
2023-02-14T03:28:06.319Z,102687.69
2023-02-14T03:29:14.317Z,102689.63
2023-02-14T03:30:53.346Z,102687.69
2023-02-14T03:32:18.578Z,102693.56
2023-02-14T03:33:29.928Z,102683.91
2023-02-14T03:34:38.162Z,102691.31
2023-02-14T03:36:02.104Z,102693.03
2023-02-14T03:37:31.692Z,102691.00
2023-02-14T03:38:51.521Z,102700.88
2023-02-14T03:40:01.811Z,102694.00
2023-02-14T03:41:09.274Z,102686.47
2023-02-14T03:42:26.028Z,102687.91
2023-02-14T03:43:33.805Z,102695.06
2023-02-14T03:44:38.158Z,102697.00
2023-02-14T03:45:47.846Z,102707.84
2023-02-14T03:46:54.080Z,102702.56
2023-02-14T03:48:00.568Z,102703.75
2023-02-14T03:49:07.335Z,102709.00
2023-02-14T03:50:17.226Z,102688.94
2023-02-14T03:51:21.306Z,102693.03
2023-02-14T03:52:25.357Z,102707.09
2023-02-14T03:53:31.902Z,102699.25
2023-02-14T03:54:35.842Z,102704.41
2023-02-14T03:56:00.476Z,102692.94
2023-02-14T03:57:16.709Z,102709.34
2023-02-14T03:58:27.622Z,102702.25
2023-02-14T03:59:29.904Z,102704.19
2023-02-14T04:00:36.107Z,102711.47
2023-02-14T04:01:42.808Z,102706.34
2023-02-14T04:02:48.740Z,102712.31
2023-02-14T04:03:52.849Z,102715.00
2023-02-14T04:04:58.316Z,102698.16
2023-02-14T04:06:00.606Z,102709.84
2023-02-14T04:07:17.371Z,102707.84
2023-02-14T04:08:24.088Z,102712.22
2023-02-14T04:09:25.899Z,102702.47
2023-02-14T04:10:28.061Z,102699.03
2023-02-14T04:11:33.546Z,102703.53
2023-02-14T04:12:37.908Z,102704.41
2023-02-14T04:13:40.254Z,102707.09
2023-02-14T04:14:42.265Z,102708.06
2023-02-14T04:15:44.979Z,102692.56
2023-02-14T04:17:05.192Z,102709.00
2023-02-14T04:18:25.395Z,102708.69
2023-02-14T04:19:27.438Z,102705.78
2023-02-14T04:20:29.885Z,102710.53
2023-02-14T04:21:31.716Z,102706.13
2023-02-14T04:22:33.502Z,102704.63
2023-02-14T04:23:35.340Z,102709.97
2023-02-14T04:24:37.201Z,102709.97
2023-02-14T04:25:40.484Z,102706.53
2023-02-14T04:26:54.063Z,102714.59
2023-02-14T04:27:56.079Z,102708.91
2023-02-14T04:28:57.847Z,102711.69
2023-02-14T04:29:59.703Z,102709.97
2023-02-14T04:31:03.865Z,102706.53
2023-02-14T04:32:12.758Z,102711.91
2023-02-14T04:33:14.642Z,102711.69
2023-02-14T04:34:16.491Z,102709.22
2023-02-14T04:35:18.404Z,102715.34
2023-02-14T04:36:20.219Z,102699.09
2023-02-14T04:37:22.102Z,102711.91
2023-02-14T04:38:23.902Z,102712.88
2023-02-14T04:39:25.852Z,102712.97
2023-02-14T04:40:28.090Z,102705.13
2023-02-14T04:41:29.872Z,102720.03
2023-02-14T04:42:31.625Z,102712.88
2023-02-14T04:43:33.463Z,102719.19
2023-02-14T04:44:35.561Z,102717.34
2023-02-14T04:45:37.327Z,102713.84
2023-02-14T04:46:39.253Z,102715.56
2023-02-14T04:47:41.401Z,102718.22
2023-02-14T04:48:43.197Z,102708.88
2023-02-14T04:49:45.163Z,102715.56
2023-02-14T04:50:52.546Z,102718.22
2023-02-14T04:51:54.433Z,102712.88
2023-02-14T04:52:56.337Z,102691.69
2023-02-14T04:53:58.126Z,102722.63
2023-02-14T04:54:59.914Z,102730.75
2023-02-14T04:56:01.682Z,102726.28
2023-02-14T04:57:03.496Z,102722.84
2023-02-14T04:58:05.408Z,102728.81
2023-02-14T04:59:07.256Z,102718.75
2023-02-14T05:00:09.972Z,102719.19
2023-02-14T05:01:11.860Z,102720.03
2023-02-14T05:02:13.797Z,102725.41
2023-02-14T05:03:15.665Z,102722.72
2023-02-14T05:04:17.417Z,102719.19
2023-02-14T05:05:19.376Z,102720.03
2023-02-14T05:06:21.303Z,102719.19
2023-02-14T05:07:23.081Z,102708.88
2023-02-14T05:08:24.869Z,102726.28
2023-02-14T05:09:26.735Z,102721.00
2023-02-14T05:10:29.315Z,102721.88
2023-02-14T05:11:31.424Z,102719.19
2023-02-14T05:12:33.324Z,102717.47
2023-02-14T05:13:35.104Z,102718.41
2023-02-14T05:14:37.017Z,102717.66
2023-02-14T05:15:38.848Z,102720.16
2023-02-14T05:16:40.738Z,102723.69
2023-02-14T05:17:42.576Z,102728.19
2023-02-14T05:18:44.659Z,102731.72
2023-02-14T05:19:46.477Z,102730.00
2023-02-14T05:20:52.636Z,102726.66
2023-02-14T05:21:54.513Z,102729.03
2023-02-14T05:22:56.709Z,102715.53
2023-02-14T05:24:01.586Z,102723.22
2023-02-14T05:25:03.552Z,102738.91
2023-02-14T05:26:05.658Z,102696.72
2023-02-14T05:27:07.716Z,102740.72
2023-02-14T05:28:10.465Z,102729.56
2023-02-14T05:29:12.353Z,102733.66
2023-02-14T05:30:14.785Z,102733.09
2023-02-14T05:31:16.758Z,102746.00
2023-02-14T05:32:18.639Z,102746.00
2023-02-14T05:33:20.427Z,102745.13
2023-02-14T05:34:22.278Z,102742.53
2023-02-14T05:35:24.394Z,102750.56
2023-02-14T05:36:26.386Z,102749.63
2023-02-14T05:37:28.466Z,102746.09
2023-02-14T05:38:30.930Z,102748.75
2023-02-14T05:39:32.723Z,102745.22
2023-02-14T05:40:34.645Z,102746.97
2023-02-14T05:41:36.530Z,102749.63
2023-02-14T05:42:38.357Z,102755.84
2023-02-14T05:43:40.162Z,102745.34
2023-02-14T05:44:42.078Z,102746.00
2023-02-14T05:45:43.998Z,102740.63
2023-02-14T05:46:45.773Z,102746.00
2023-02-14T05:47:48.658Z,102756.72
2023-02-14T05:48:50.544Z,102749.63
2023-02-14T05:49:52.327Z,102749.44
2023-02-14T05:50:54.147Z,102748.56
2023-02-14T05:51:55.945Z,102746.16
2023-02-14T05:52:57.780Z,102749.44
2023-02-14T05:54:01.389Z,102714.84
2023-02-14T05:55:03.669Z,102747.50
2023-02-14T05:56:05.857Z,102747.50
2023-02-14T05:57:07.681Z,102749.31
2023-02-14T05:58:09.997Z,102748.34
2023-02-14T05:59:12.131Z,102747.50
2023-02-14T06:00:14.664Z,102742.34
2023-02-14T06:01:16.505Z,102754.59
2023-02-14T06:02:18.376Z,102752.75
2023-02-14T06:03:20.184Z,102743.84
2023-02-14T06:04:22.096Z,102748.34
2023-02-14T06:05:23.985Z,102745.78
2023-02-14T06:06:25.838Z,102755.53
2023-02-14T06:07:27.615Z,102749.22
2023-02-14T06:08:29.468Z,102743.84
2023-02-14T06:09:31.237Z,102752.66
2023-02-14T06:10:33.168Z,102746.31
2023-02-14T06:11:34.980Z,102743.53
2023-02-14T06:12:36.808Z,102742.91
2023-02-14T06:13:40.428Z,102752.22
2023-02-14T06:14:43.004Z,102722.41
2023-02-14T06:15:44.786Z,102737.66
2023-02-14T06:16:46.651Z,102722.97
2023-02-14T06:17:56.303Z,102744.31
2023-02-14T06:18:58.122Z,102739.59
2023-02-14T06:19:59.897Z,102734.13
2023-02-14T06:21:02.242Z,102727.25
2023-02-14T06:22:04.450Z,102732.84
2023-02-14T06:23:06.225Z,102717.28
2023-02-14T06:24:08.058Z,102736.91
2023-02-14T06:25:09.820Z,102732.41
2023-02-14T06:26:11.757Z,102734.81
2023-02-14T06:27:13.601Z,102730.94
2023-02-14T06:28:15.462Z,102731.56
2023-02-14T06:29:18.014Z,102733.19
2023-02-14T06:30:19.992Z,102747.16
2023-02-14T06:31:22.296Z,102734.47
2023-02-14T06:32:24.255Z,102738.97
2023-02-14T06:33:26.168Z,102741.13
2023-02-14T06:34:27.927Z,102743.72
2023-02-14T06:35:29.808Z,102744.34
2023-02-14T06:36:31.920Z,102747.66
2023-02-14T06:37:33.992Z,102749.25
2023-02-14T06:38:35.804Z,102748.94
2023-02-14T06:39:37.608Z,102742.50
2023-02-14T06:40:39.354Z,102742.16
2023-02-14T06:41:41.130Z,102737.66
2023-02-14T06:42:43.302Z,102742.59
2023-02-14T06:43:48.839Z,102743.13
2023-02-14T06:44:50.642Z,102742.78
2023-02-14T06:45:52.498Z,102734.94
2023-02-14T06:46:54.265Z,102746.84
2023-02-14T06:47:56.097Z,102745.66
2023-02-14T06:48:57.874Z,102738.47
2023-02-14T06:50:04.334Z,102741.66
2023-02-14T06:51:06.873Z,102736.91
2023-02-14T06:52:08.752Z,102744.69
2023-02-14T06:53:11.612Z,102745.41
2023-02-14T06:54:13.805Z,102749.72
2023-02-14T06:55:15.710Z,102747.66
2023-02-14T06:56:17.643Z,102752.94
2023-02-14T06:57:20.060Z,102753.66
2023-02-14T06:58:21.967Z,102744.00
2023-02-14T06:59:23.938Z,102751.59
2023-02-14T07:00:25.857Z,102748.28
2023-02-14T07:01:27.763Z,102760.31
2023-02-14T07:02:29.650Z,102763.72
2023-02-14T07:03:31.473Z,102761.78
2023-02-14T07:04:33.353Z,102760.81
2023-02-14T07:05:35.733Z,102758.13
2023-02-14T07:06:37.877Z,102756.19
2023-02-14T07:07:39.726Z,102760.59
2023-02-14T07:08:42.485Z,102754.25
2023-02-14T07:09:44.284Z,102758.63
2023-02-14T07:10:46.440Z,102761.31
2023-02-14T07:11:48.254Z,102763.03
2023-02-14T07:12:50.037Z,102758.53
2023-02-14T07:13:51.865Z,102772.81
2023-02-14T07:14:53.648Z,102759.38
2023-02-14T07:15:55.521Z,102769.28
2023-02-14T07:16:57.377Z,102759.38
2023-02-14T07:17:59.277Z,102763.78
2023-02-14T07:19:01.139Z,102766.47
2023-02-14T07:20:03.452Z,102744.09
2023-02-14T07:21:05.501Z,102754.47
2023-02-14T07:22:07.271Z,102769.06
2023-02-14T07:23:09.038Z,102768.19
2023-02-14T07:24:10.992Z,102767.34
2023-02-14T07:25:12.940Z,102756.94
2023-02-14T07:26:18.269Z,102766.38
2023-02-14T07:27:20.211Z,102769.06
2023-02-14T07:28:22.474Z,102769.06
2023-02-14T07:29:24.308Z,102768.41
2023-02-14T07:30:26.309Z,102779.81
2023-02-14T07:31:28.297Z,102778.84
2023-02-14T07:32:30.390Z,102766.69
2023-02-14T07:33:32.183Z,102770.13
2023-02-14T07:34:34.193Z,102770.13
2023-02-14T07:35:36.007Z,102761.69
2023-02-14T07:36:39.031Z,102771.09
2023-02-14T07:37:40.905Z,102770.13
2023-02-14T07:38:42.668Z,102779.16
2023-02-14T07:39:46.089Z,102773.78
2023-02-14T07:40:47.861Z,102776.38
2023-02-14T07:41:49.709Z,102758.03
2023-02-14T07:42:55.513Z,102771.97
2023-02-14T07:43:57.345Z,102770.25
2023-02-14T07:45:00.502Z,102777.34
2023-02-14T07:46:05.050Z,102780.88
2023-02-14T07:47:07.984Z,102771.09
2023-02-14T07:48:09.816Z,102773.78
2023-02-14T07:49:12.099Z,102766.53
2023-02-14T07:50:13.884Z,102779.28
2023-02-14T07:51:15.668Z,102777.44
2023-02-14T07:52:17.654Z,102777.44
2023-02-14T07:53:19.394Z,102772.53
2023-02-14T07:54:21.314Z,102773.19
2023-02-14T07:55:26.337Z,102776.72
2023-02-14T07:56:28.147Z,102781.09
2023-02-14T07:57:29.996Z,102778.56
2023-02-14T07:58:31.762Z,102783.06
2023-02-14T07:59:33.765Z,102776.84
2023-02-14T08:00:35.571Z,102781.34
2023-02-14T08:01:37.491Z,102778.13
2023-02-14T08:02:39.476Z,102783.19
2023-02-14T08:03:41.448Z,102780.06
2023-02-14T08:04:43.363Z,102787.69
2023-02-14T08:05:57.123Z,102777.91
2023-02-14T08:06:59.104Z,102775.22
2023-02-14T08:08:00.899Z,102783.06
2023-02-14T08:09:03.036Z,102768.91
2023-02-14T08:10:05.754Z,102780.94
2023-02-14T08:11:08.167Z,102791.34
2023-02-14T08:12:28.896Z,102792.31
2023-02-14T08:13:30.720Z,102789.31
2023-02-14T08:14:32.486Z,102786.72
2023-02-14T08:15:53.900Z,102792.31
2023-02-14T08:16:55.727Z,102787.44
2023-02-14T08:17:57.669Z,102788.44
2023-02-14T08:18:59.811Z,102791.34
2023-02-14T08:20:01.587Z,102781.56
2023-02-14T08:21:04.438Z,102789.75
2023-02-14T08:22:06.841Z,102787.91
2023-02-14T08:23:08.692Z,102790.59
2023-02-14T08:24:10.502Z,102770.63
2023-02-14T08:25:12.270Z,102790.81
2023-02-14T08:26:14.453Z,102787.16
2023-02-14T08:27:16.209Z,102792.53
2023-02-14T08:28:22.432Z,102789.84
2023-02-14T08:29:24.334Z,102789.75
2023-02-14T08:30:26.300Z,102787.91
2023-02-14T08:31:36.267Z,102797.91
2023-02-14T08:32:38.457Z,102787.81
2023-02-14T08:33:40.603Z,102796.84
2023-02-14T08:34:42.443Z,102796.09
2023-02-14T08:35:44.324Z,102792.53
2023-02-14T08:36:47.571Z,102798.78
2023-02-14T08:37:49.535Z,102799.63
2023-02-14T08:38:51.343Z,102798.78
2023-02-14T08:39:53.174Z,102789.09
2023-02-14T08:40:59.440Z,102783.72
2023-02-14T08:42:01.403Z,102784.38
2023-02-14T08:43:07.353Z,102774.63
2023-02-14T08:44:09.140Z,102787.91
2023-02-14T08:45:10.920Z,102787.16
2023-02-14T08:46:13.028Z,102789.84
2023-02-14T08:47:14.925Z,102789.84
2023-02-14T08:48:16.769Z,102774.19
2023-02-14T08:49:18.542Z,102788.88
2023-02-14T08:50:20.633Z,102782.75
2023-02-14T08:51:22.886Z,102780.06
2023-02-14T08:52:24.661Z,102776.75
2023-02-14T08:53:26.573Z,102786.31
2023-02-14T08:54:28.397Z,102778.38
2023-02-14T08:55:30.243Z,102780.94
2023-02-14T08:56:32.181Z,102785.44
2023-02-14T08:57:33.993Z,102782.03
2023-02-14T08:58:36.636Z,102794.47
2023-02-14T08:59:38.481Z,102794.38
2023-02-14T09:00:40.753Z,102790.81
2023-02-14T09:01:42.636Z,102790.81
2023-02-14T09:02:44.567Z,102787.16
2023-02-14T09:03:46.604Z,102789.84
2023-02-14T09:04:48.462Z,102786.31
2023-02-14T09:05:50.718Z,102787.16
2023-02-14T09:06:52.641Z,102784.47
2023-02-14T09:07:56.504Z,102781.78
2023-02-14T09:08:59.435Z,102788.03
2023-02-14T09:10:02.677Z,102783.50
2023-02-14T09:11:25.012Z,102789.41
2023-02-14T09:12:27.092Z,102781.34
2023-02-14T09:13:30.618Z,102788.56
2023-02-14T09:14:40.761Z,102789.41
2023-02-14T09:15:43.665Z,102785.88
2023-02-14T09:16:45.484Z,102793.06
2023-02-14T09:17:47.847Z,102778.13
2023-02-14T09:18:49.733Z,102783.28
2023-02-14T09:19:51.506Z,102778.38
2023-02-14T09:20:53.379Z,102770.41
2023-02-14T09:21:55.186Z,102787.81
2023-02-14T09:22:57.315Z,102787.69
2023-02-14T09:23:59.303Z,102783.63
2023-02-14T09:25:01.395Z,102785.13
2023-02-14T09:26:09.065Z,102781.69
2023-02-14T09:27:11.174Z,102781.34
2023-02-14T09:28:13.015Z,102775.59
2023-02-14T09:29:15.952Z,102773.84
2023-02-14T09:30:17.967Z,102781.34
2023-02-14T09:31:22.469Z,102782.31
2023-02-14T09:32:26.493Z,102765.91
2023-02-14T09:33:31.815Z,102781.34
2023-02-14T09:34:34.952Z,102778.66
2023-02-14T09:35:36.713Z,102765.69
2023-02-14T09:36:38.499Z,102777.69
2023-02-14T09:37:40.264Z,102783.06
2023-02-14T09:38:42.264Z,102776.94
2023-02-14T09:39:44.064Z,102780.38
2023-02-14T09:40:48.383Z,102773.28
2023-02-14T09:42:05.336Z,102778.56
2023-02-14T09:43:36.512Z,102769.63
2023-02-14T09:44:46.954Z,102770.63
2023-02-14T09:45:55.169Z,102740.00
2023-02-14T09:47:01.601Z,102765.00
2023-02-14T09:48:06.489Z,102770.13
2023-02-14T09:49:18.292Z,102774.66
2023-02-14T09:50:25.890Z,102768.31
2023-02-14T09:51:31.783Z,102768.31
2023-02-14T09:52:34.304Z,102763.28
2023-02-14T09:53:43.837Z,102771.84
2023-02-14T09:54:53.870Z,102778.94
2023-02-14T09:56:20.369Z,102766.78
2023-02-14T09:57:53.169Z,102770.94
2023-02-14T09:59:18.020Z,102768.13
2023-02-14T10:00:29.346Z,102773.50
2023-02-14T10:01:41.932Z,102765.81
2023-02-14T10:02:58.929Z,102771.69
2023-02-14T10:04:39.881Z,102776.34
2023-02-14T10:06:02.280Z,102772.44
2023-02-14T10:07:41.165Z,102781.84
2023-02-14T10:09:10.145Z,102770.03
2023-02-14T10:10:42.093Z,102777.13
2023-02-14T10:11:47.630Z,102776.38
2023-02-14T10:13:20.230Z,102771.97
2023-02-14T10:14:26.070Z,102777.34
2023-02-14T10:15:34.365Z,102775.63
2023-02-14T10:16:42.889Z,102769.53
2023-02-14T10:17:48.632Z,102773.91
2023-02-14T10:18:59.105Z,102769.63
2023-02-14T10:20:07.352Z,102781.00
2023-02-14T10:21:22.364Z,102771.56
2023-02-14T10:22:32.625Z,102774.75
2023-02-14T10:23:42.749Z,102772.81
2023-02-14T10:25:03.776Z,102772.38
2023-02-14T10:26:10.682Z,102770.75
2023-02-14T10:27:33.890Z,102781.06
2023-02-14T10:28:43.893Z,102779.84
2023-02-14T10:29:45.758Z,102772.75
2023-02-14T10:31:05.104Z,102779.97
2023-02-14T10:32:14.303Z,102772.66
2023-02-14T10:33:18.042Z,102780.59
2023-02-14T10:34:46.003Z,102782.81
2023-02-14T10:36:00.799Z,102775.72
2023-02-14T10:37:19.979Z,102776.44
2023-02-14T10:38:42.428Z,102770.09
2023-02-14T10:40:23.433Z,102769.69
2023-02-14T10:42:10.369Z,102774.34
2023-02-14T10:43:36.588Z,102770.19
2023-02-14T10:44:59.709Z,102774.22
2023-02-14T10:46:27.607Z,102774.59
2023-02-14T10:47:51.994Z,102775.44
2023-02-14T10:49:22.073Z,102768.97
2023-02-14T10:50:39.895Z,102771.53
2023-02-14T10:51:50.263Z,102766.28
2023-02-14T10:52:59.056Z,102755.25
2023-02-14T10:54:24.405Z,102766.06
2023-02-14T10:55:38.141Z,102762.50
2023-02-14T10:56:49.462Z,102754.78
2023-02-14T10:57:54.965Z,102736.69
2023-02-14T10:58:57.856Z,102748.53
2023-02-14T11:00:08.563Z,102754.56
2023-02-14T11:01:14.131Z,102758.97
2023-02-14T11:02:18.510Z,102762.38
2023-02-14T11:03:20.413Z,102764.19
2023-02-14T11:04:24.820Z,102755.53
2023-02-14T11:05:46.658Z,102751.63
2023-02-14T11:06:50.263Z,102759.47
2023-02-14T11:07:52.089Z,102757.50
2023-02-14T11:08:55.584Z,102757.50
2023-02-14T11:09:58.832Z,102743.56
2023-02-14T11:11:21.470Z,102742.34
2023-02-14T11:12:38.046Z,102744.53
2023-02-14T11:13:40.436Z,102749.69
2023-02-14T11:14:43.682Z,102734.13
2023-02-14T11:15:46.917Z,102745.53
2023-02-14T11:16:51.992Z,102748.09
2023-02-14T11:18:13.915Z,102720.56
2023-02-14T11:19:15.650Z,102747.63
2023-02-14T11:20:30.354Z,102750.41
2023-02-14T11:21:39.201Z,102752.03
2023-02-14T11:22:40.985Z,102750.19
2023-02-14T11:23:48.402Z,102749.44
2023-02-14T11:25:04.767Z,102742.97
2023-02-14T11:26:30.024Z,102735.75
2023-02-14T11:27:32.658Z,102730.25
2023-02-14T11:28:34.848Z,102742.59
2023-02-14T11:29:52.235Z,102744.44
2023-02-14T11:30:54.778Z,102744.31
2023-02-14T11:32:05.915Z,102739.91
2023-02-14T11:33:13.056Z,102730.38
2023-02-14T11:34:23.797Z,102737.13
2023-02-14T11:35:33.887Z,102737.22
2023-02-14T11:36:42.174Z,102725.72
2023-02-14T11:37:50.237Z,102730.84
2023-02-14T11:39:03.825Z,102731.50
2023-02-14T11:40:06.823Z,102729.53
2023-02-14T11:41:15.042Z,102733.19
2023-02-14T11:42:43.173Z,102733.84
2023-02-14T11:43:45.726Z,102740.69
2023-02-14T11:44:56.260Z,102719.00
2023-02-14T11:46:26.543Z,102735.06
2023-02-14T11:47:31.237Z,102719.63
2023-02-14T11:48:38.811Z,102734.31
2023-02-14T11:49:41.032Z,102733.69
2023-02-14T11:50:44.896Z,102730.41
2023-02-14T11:51:48.021Z,102730.41
2023-02-14T11:52:53.442Z,102738.22
2023-02-14T11:54:00.655Z,102726.22
2023-02-14T11:55:02.553Z,102737.00
2023-02-14T11:56:04.757Z,102738.09
2023-02-14T11:57:21.724Z,102739.94
2023-02-14T11:58:37.297Z,102739.56
2023-02-14T11:59:45.683Z,102730.50
2023-02-14T12:00:54.437Z,102726.84
2023-02-14T12:02:00.755Z,102726.97
2023-02-14T12:03:05.726Z,102732.34
2023-02-14T12:04:16.660Z,102726.09
2023-02-14T12:05:28.165Z,102727.97
2023-02-14T12:06:33.737Z,102726.72
2023-02-14T12:07:39.661Z,102729.44
2023-02-14T12:08:42.318Z,102722.34
2023-02-14T12:09:45.669Z,102723.31
2023-02-14T12:11:05.232Z,102733.81
2023-02-14T12:12:17.913Z,102708.38
2023-02-14T12:13:19.701Z,102718.41
2023-02-14T12:14:23.485Z,102722.34
2023-02-14T12:15:29.401Z,102714.34
2023-02-14T12:16:47.494Z,102722.91
2023-02-14T12:18:11.717Z,102714.75
2023-02-14T12:19:18.393Z,102703.97
2023-02-14T12:20:35.673Z,102712.78
2023-02-14T12:22:02.460Z,102711.56
2023-02-14T12:23:28.691Z,102712.53
2023-02-14T12:24:36.502Z,102706.16
2023-02-14T12:26:00.134Z,102679.28
2023-02-14T12:27:23.340Z,102710.56
2023-02-14T12:28:34.782Z,102710.19
2023-02-14T12:30:20.673Z,102715.13
2023-02-14T12:31:22.579Z,102709.50
2023-02-14T12:32:27.911Z,102700.06
2023-02-14T12:33:30.131Z,102701.38
2023-02-14T12:34:32.011Z,102705.78
2023-02-14T12:35:42.964Z,102705.06
2023-02-14T12:37:22.424Z,102703.72
2023-02-14T12:39:01.568Z,102704.22
2023-02-14T12:40:10.608Z,102706.91
2023-02-14T12:41:33.493Z,102701.66
2023-02-14T12:42:53.679Z,102699.69
2023-02-14T12:43:57.557Z,102687.69
2023-02-14T12:45:12.467Z,102694.03